createdAt,value
2018-02-16T00:00:58.575Z,99987.14
2018-02-16T00:03:26.133Z,99988.98
2018-02-16T00:05:53.802Z,99989.65
2018-02-16T00:08:21.376Z,99989.39
2018-02-16T00:10:48.940Z,99987.25
2018-02-16T00:13:16.510Z,99996.11
2018-02-16T00:15:44.182Z,99994.88
2018-02-16T00:18:12.009Z,99994.13
2018-02-16T00:20:39.617Z,99991.25
2018-02-16T00:23:07.169Z,99990.47
2018-02-16T00:25:34.966Z,99988.09
2018-02-16T00:28:02.781Z,99988.22
2018-02-16T00:30:30.398Z,99992.97
2018-02-16T00:32:57.957Z,99985.34
2018-02-16T00:35:25.735Z,99983.87
2018-02-16T00:37:53.554Z,99982.84
2018-02-16T00:40:21.273Z,99982.64
2018-02-16T00:42:49.091Z,99976.28
2018-02-16T00:45:16.658Z,99970.98
2018-02-16T00:47:44.244Z,99977.95
2018-02-16T00:50:12.047Z,99977.14
2018-02-16T00:52:39.738Z,99980.22
2018-02-16T00:55:07.359Z,99980.82
2018-02-16T00:57:35.100Z,99975.63
2018-02-16T01:00:02.818Z,99969.08
2018-02-16T01:02:30.399Z,99971.02
2018-02-16T01:04:58.118Z,99967.97
2018-02-16T01:07:25.737Z,99967.05
2018-02-16T01:09:53.403Z,99971.70
2018-02-16T01:12:21.110Z,99972.80
2018-02-16T01:14:48.927Z,99972.30
2018-02-16T01:17:16.532Z,99969.98
2018-02-16T01:19:44.158Z,99967.80
2018-02-16T01:22:11.726Z,99968.03
2018-02-16T01:24:39.498Z,99968.16
2018-02-16T01:27:07.315Z,99964.38
2018-02-16T01:29:34.943Z,99963.70
2018-02-16T01:32:02.753Z,99971.21
2018-02-16T01:34:30.314Z,99963.02
2018-02-16T01:36:58.090Z,99969.37
2018-02-16T01:39:26.009Z,99972.66
2018-02-16T01:41:53.576Z,99972.87
2018-02-16T01:44:21.193Z,99973.70
2018-02-16T01:46:48.963Z,99972.02
2018-02-16T01:49:16.520Z,99970.42
2018-02-16T01:51:44.077Z,99975.61
2018-02-16T01:54:11.817Z,99974.75
2018-02-16T01:56:39.427Z,99979.09
2018-02-16T01:59:06.978Z,99984.41
2018-02-16T02:01:34.771Z,99988.19
2018-02-16T02:04:02.490Z,99989.80
2018-02-16T02:06:30.055Z,99997.37
2018-02-16T02:08:57.676Z,99996.46
2018-02-16T02:11:25.229Z,99987.77
2018-02-16T02:13:52.795Z,99993.09
2018-02-16T02:16:20.579Z,99999.38
2018-02-16T02:18:48.143Z,99987.95
2018-02-16T02:21:15.761Z,99991.85
2018-02-16T02:23:43.319Z,99990.92
2018-02-16T02:26:11.051Z,99995.75
2018-02-16T02:28:38.869Z,99999.98
2018-02-16T02:31:06.590Z,99998.69
2018-02-16T02:33:34.209Z,100000.83
2018-02-16T02:36:01.770Z,99999.55
2018-02-16T02:38:29.332Z,100004.74
2018-02-16T02:40:56.915Z,100008.59
2018-02-16T02:43:24.485Z,99998.39
2018-02-16T02:45:52.188Z,99994.93
2018-02-16T02:48:19.760Z,100004.02
2018-02-16T02:50:47.489Z,100005.56
2018-02-16T02:53:15.054Z,100000.73
2018-02-16T02:55:42.680Z,99999.73
2018-02-16T02:58:10.293Z,100000.53
2018-02-16T03:00:38.104Z,100002.02
2018-02-16T03:03:05.823Z,100010.06
2018-02-16T03:05:33.399Z,100007.45
2018-02-16T03:08:00.963Z,100011.86
2018-02-16T03:10:28.589Z,100013.20
2018-02-16T03:12:56.393Z,100013.81
2018-02-16T03:15:23.953Z,100010.95
2018-02-16T03:17:51.733Z,100013.83
2018-02-16T03:20:19.548Z,100017.61
2018-02-16T03:22:47.169Z,100015.28
2018-02-16T03:25:14.730Z,100019.14
2018-02-16T03:27:42.287Z,100016.80
2018-02-16T03:30:09.869Z,100019.67
2018-02-16T03:32:37.638Z,100023.95
2018-02-16T03:35:05.282Z,100028.84
2018-02-16T03:37:32.846Z,100026.39
2018-02-16T03:40:00.404Z,100027.14
2018-02-16T03:42:28.903Z,100027.43
2018-02-16T03:44:56.635Z,100027.20
2018-02-16T03:47:24.283Z,100033.13
2018-02-16T03:49:51.874Z,100030.38
2018-02-16T03:52:19.685Z,100040.87
2018-02-16T03:54:47.505Z,100041.08
2018-02-16T03:57:15.086Z,100037.28
2018-02-16T03:59:42.679Z,100036.42
2018-02-16T04:02:10.434Z,100040.34
2018-02-16T04:04:38.057Z,100039.35
2018-02-16T04:07:05.796Z,100036.80
2018-02-16T04:09:33.514Z,100040.26
2018-02-16T04:12:01.136Z,100036.36
2018-02-16T04:14:28.698Z,100046.52
2018-02-16T04:16:56.255Z,100045.09
2018-02-16T04:19:23.984Z,100044.61
2018-02-16T04:21:51.703Z,100047.11
2018-02-16T04:24:19.329Z,100050.34
2018-02-16T04:26:46.910Z,100050.66
2018-02-16T04:29:14.468Z,100055.88
2018-02-16T04:31:42.063Z,100061.85
2018-02-16T04:34:09.791Z,100068.38
2018-02-16T04:36:37.561Z,100062.70
2018-02-16T04:39:05.328Z,100066.98
2018-02-16T04:41:33.044Z,100060.27
2018-02-16T04:44:00.616Z,100064.53
2018-02-16T04:46:28.383Z,100061.23
2018-02-16T04:48:56.201Z,100072.42
2018-02-16T04:51:23.769Z,100076.08
2018-02-16T04:53:51.330Z,100078.39
2018-02-16T04:56:18.946Z,100076.19
2018-02-16T04:58:46.502Z,100085.16
2018-02-16T05:01:14.248Z,100087.00
2018-02-16T05:03:41.814Z,100090.31
2018-02-16T05:06:09.628Z,100104.11
2018-02-16T05:08:37.236Z,100102.14
2018-02-16T05:11:04.862Z,100104.53
2018-02-16T05:13:32.498Z,100106.17
2018-02-16T05:16:00.301Z,100118.14
2018-02-16T05:18:28.267Z,100117.55
2018-02-16T05:20:56.002Z,100122.45
2018-02-16T05:23:23.561Z,100127.21
2018-02-16T05:25:51.294Z,100131.38
2018-02-16T05:28:18.857Z,100139.16
2018-02-16T05:30:46.603Z,100141.66
2018-02-16T05:33:14.427Z,100143.22
2018-02-16T05:35:41.990Z,100143.22
2018-02-16T05:38:09.741Z,100140.34
2018-02-16T05:40:37.396Z,100144.98
2018-02-16T05:43:05.030Z,100143.76
2018-02-16T05:45:32.602Z,100135.92
2018-02-16T05:48:00.223Z,100148.72
2018-02-16T05:50:27.794Z,100148.81
2018-02-16T05:52:55.350Z,100146.86
2018-02-16T05:55:22.978Z,100151.09
2018-02-16T05:57:50.707Z,100148.83
2018-02-16T06:00:18.273Z,100151.98
2018-02-16T06:02:45.943Z,100154.39
2018-02-16T06:05:13.661Z,100150.97
2018-02-16T06:07:41.306Z,100141.80
2018-02-16T06:10:09.100Z,100145.48
2018-02-16T06:12:36.661Z,100147.63
2018-02-16T06:15:04.277Z,100157.34
2018-02-16T06:17:31.834Z,100161.06
2018-02-16T06:19:59.500Z,100160.25
2018-02-16T06:22:27.287Z,100136.98
2018-02-16T06:24:54.863Z,100136.80
2018-02-16T06:27:22.466Z,100141.32
2018-02-16T06:29:50.121Z,100145.11
2018-02-16T06:32:17.737Z,100143.80
2018-02-16T06:34:45.439Z,100138.41
2018-02-16T06:37:12.998Z,100134.13
2018-02-16T06:39:40.813Z,100136.70
2018-02-16T06:42:08.532Z,100140.48
2018-02-16T06:44:36.329Z,100133.27
2018-02-16T06:47:03.886Z,100141.95
2018-02-16T06:49:31.687Z,100134.95
2018-02-16T06:51:59.262Z,100128.55
2018-02-16T06:54:26.921Z,100135.62
2018-02-16T06:56:54.685Z,100135.31
2018-02-16T06:59:22.243Z,100136.46
2018-02-16T07:01:49.803Z,100133.28
2018-02-16T07:04:17.558Z,100130.94
2018-02-16T07:06:45.315Z,100128.97
2018-02-16T07:09:13.131Z,100125.06
2018-02-16T07:11:40.689Z,100122.70
2018-02-16T07:14:08.249Z,100125.15
2018-02-16T07:16:35.828Z,100122.82
2018-02-16T07:19:03.390Z,100126.62
2018-02-16T07:21:31.018Z,100126.98
2018-02-16T07:23:58.643Z,100126.36
2018-02-16T07:26:26.220Z,100128.05
2018-02-16T07:28:53.794Z,100128.41
2018-02-16T07:31:21.362Z,100128.93
2018-02-16T07:33:48.989Z,100129.29
2018-02-16T07:36:16.719Z,100130.88
2018-02-16T07:38:44.271Z,100127.37
2018-02-16T07:41:12.067Z,100137.28
2018-02-16T07:43:39.625Z,100135.58
2018-02-16T07:46:07.254Z,100140.16
2018-02-16T07:48:34.822Z,100132.91
2018-02-16T07:51:02.427Z,100143.38
2018-02-16T07:53:29.979Z,100138.27
2018-02-16T07:55:57.632Z,100136.98
2018-02-16T07:58:25.465Z,100134.22
2018-02-16T08:00:53.060Z,100131.69
2018-02-16T08:03:20.728Z,100138.22
2018-02-16T08:05:48.544Z,100139.53
2018-02-16T08:08:16.120Z,100140.62
2018-02-16T08:10:43.754Z,100140.27
2018-02-16T08:13:11.323Z,100134.88
2018-02-16T08:15:39.120Z,100138.56
2018-02-16T08:18:07.766Z,100137.11
2018-02-16T08:20:35.377Z,100133.02
2018-02-16T08:23:02.997Z,100135.37
2018-02-16T08:25:30.796Z,100136.89
2018-02-16T08:27:58.358Z,100137.31
2018-02-16T08:30:25.930Z,100132.86
2018-02-16T08:32:53.489Z,100129.53
2018-02-16T08:35:21.127Z,100128.08
2018-02-16T08:37:48.851Z,100127.20
2018-02-16T08:40:16.567Z,100120.83
2018-02-16T08:42:44.284Z,100122.75
2018-02-16T08:45:11.877Z,100118.76
2018-02-16T08:47:39.654Z,100115.25
2018-02-16T08:50:07.227Z,100112.81
2018-02-16T08:52:34.803Z,100109.10
2018-02-16T08:55:02.378Z,100105.28
2018-02-16T08:57:29.937Z,100108.36
2018-02-16T08:59:57.637Z,100103.88
2018-02-16T09:02:25.362Z,100099.71
2018-02-16T09:04:53.081Z,100104.95
2018-02-16T09:07:20.898Z,100085.73
2018-02-16T09:09:48.470Z,100109.95
2018-02-16T09:12:16.180Z,100104.96
2018-02-16T09:14:43.723Z,100103.11
2018-02-16T09:17:11.470Z,100110.80
2018-02-16T09:19:39.042Z,100105.30
2018-02-16T09:22:06.602Z,100107.55
2018-02-16T09:24:34.429Z,100105.84
2018-02-16T09:27:02.144Z,100101.29
2018-02-16T09:29:29.861Z,100091.47
2018-02-16T09:31:57.467Z,100090.34
2018-02-16T09:34:25.015Z,100080.36
2018-02-16T09:36:54.720Z,100079.48
2018-02-16T09:39:23.465Z,100078.69
2018-02-16T09:41:51.025Z,100081.30
2018-02-16T09:44:18.600Z,100083.12
2018-02-16T09:46:46.179Z,100084.87
2018-02-16T09:49:14.017Z,100080.70
2018-02-16T09:51:41.563Z,100075.71
2018-02-16T09:54:09.182Z,100073.63
2018-02-16T09:56:36.809Z,100070.06
2018-02-16T09:59:04.399Z,100067.67
2018-02-16T10:01:32.123Z,100069.16
2018-02-16T10:03:59.689Z,100061.60
2018-02-16T10:06:27.268Z,100059.60
2018-02-16T10:08:54.967Z,100061.16
2018-02-16T10:11:22.558Z,100054.52
2018-02-16T10:13:50.175Z,100045.84
2018-02-16T10:16:18.014Z,100048.94
2018-02-16T10:18:45.832Z,100048.33
2018-02-16T10:21:13.429Z,100056.70
2018-02-16T10:23:41.059Z,100060.89
2018-02-16T10:26:08.692Z,100056.19
2018-02-16T10:28:36.261Z,100053.30
2018-02-16T10:31:03.894Z,100045.38
2018-02-16T10:33:31.740Z,100051.22
2018-02-16T10:35:59.301Z,100045.48
2018-02-16T10:38:27.076Z,100044.90
2018-02-16T10:40:54.659Z,100041.67
2018-02-16T10:43:22.302Z,100033.00
2018-02-16T10:45:49.878Z,100033.65
2018-02-16T10:48:17.547Z,100028.59
2018-02-16T10:50:45.233Z,100038.51
2018-02-16T10:53:12.872Z,100028.24
2018-02-16T10:55:40.590Z,100023.45
2018-02-16T10:58:08.178Z,100021.96
2018-02-16T11:00:41.660Z,100017.89
2018-02-16T11:03:14.813Z,100014.38
2018-02-16T11:05:47.799Z,100012.33
2018-02-16T11:08:21.038Z,100019.53
2018-02-16T11:10:48.606Z,100006.02
2018-02-16T11:13:16.199Z,100007.03
2018-02-16T11:15:43.761Z,99997.09
2018-02-16T11:18:11.386Z,99995.77
2018-02-16T11:20:39.042Z,99996.25
2018-02-16T11:23:07.392Z,99995.48
2018-02-16T11:25:37.101Z,99992.30
2018-02-16T11:28:04.661Z,99988.76
2018-02-16T11:30:32.273Z,99992.33
2018-02-16T11:32:59.856Z,99990.28
2018-02-16T11:35:27.403Z,99988.80
2018-02-16T11:37:55.006Z,99986.54
2018-02-16T11:40:22.786Z,99979.95
2018-02-16T11:42:50.628Z,99986.20
2018-02-16T11:45:18.202Z,99986.37
2018-02-16T11:47:45.765Z,99979.45
2018-02-16T11:50:13.334Z,99982.52
2018-02-16T11:52:40.913Z,99982.27
2018-02-16T11:55:08.530Z,99990.89
2018-02-16T11:57:36.341Z,99992.31
2018-02-16T12:00:04.157Z,99982.82
2018-02-16T12:02:31.976Z,99977.55
2018-02-16T12:04:59.590Z,99981.59
2018-02-16T12:07:27.205Z,99984.66
2018-02-16T12:09:54.775Z,99979.24
2018-02-16T12:12:22.439Z,99973.17
2018-02-16T12:14:50.146Z,99980.79
2018-02-16T12:17:17.884Z,99977.06
2018-02-16T12:19:45.593Z,99979.45
2018-02-16T12:22:13.201Z,99982.22
2018-02-16T12:24:40.748Z,99971.36
2018-02-16T12:27:08.313Z,99976.59
2018-02-16T12:29:35.878Z,99975.67
2018-02-16T12:32:03.514Z,99974.77
2018-02-16T12:34:31.360Z,99970.33
2018-02-16T12:36:59.019Z,99968.16
2018-02-16T12:39:26.746Z,99973.47
2018-02-16T12:41:54.564Z,99966.87
2018-02-16T12:44:22.275Z,99968.17
2018-02-16T12:46:50.293Z,99968.96
2018-02-16T12:49:17.867Z,99971.49
2018-02-16T12:51:45.452Z,99975.42
2018-02-16T12:54:13.050Z,99976.16
2018-02-16T12:56:40.844Z,99979.27
2018-02-16T12:59:08.397Z,99985.98
2018-02-16T13:01:36.101Z,99981.99
2018-02-16T13:04:03.674Z,99974.20
2018-02-16T13:06:31.237Z,99983.47
2018-02-16T13:08:58.857Z,99973.55
2018-02-16T13:11:26.422Z,99984.41
2018-02-16T13:13:54.052Z,99978.09
2018-02-16T13:16:21.614Z,99976.96
2018-02-16T13:18:49.178Z,99983.95
2018-02-16T13:21:16.827Z,99980.95
2018-02-16T13:23:44.377Z,99975.47
2018-02-16T13:26:11.965Z,99980.58
2018-02-16T13:28:39.530Z,99967.29
2018-02-16T13:31:07.085Z,99962.77
2018-02-16T13:33:34.715Z,99961.91
2018-02-16T13:36:02.284Z,99961.08
2018-02-16T13:38:29.868Z,99957.34
2018-02-16T13:40:57.596Z,99957.00
2018-02-16T13:43:25.313Z,99956.61
2018-02-16T13:45:52.930Z,99963.20
2018-02-16T13:48:20.493Z,99958.31
2018-02-16T13:50:48.186Z,99958.39
2018-02-16T13:53:15.754Z,99949.14
2018-02-16T13:55:43.317Z,99958.75
2018-02-16T13:58:11.002Z,99949.68
2018-02-16T14:00:38.561Z,99944.17
2018-02-16T14:03:06.243Z,99946.98
2018-02-16T14:05:33.864Z,99943.97
2018-02-16T14:08:02.092Z,99935.40
2018-02-16T14:10:29.827Z,99930.03
2018-02-16T14:12:57.390Z,99933.90
2018-02-16T14:15:25.010Z,99932.22
2018-02-16T14:17:52.578Z,99919.73
2018-02-16T14:20:20.155Z,99915.30
2018-02-16T14:22:48.009Z,99908.22
2018-02-16T14:25:15.578Z,99902.39
2018-02-16T14:27:43.160Z,99893.13
2018-02-16T14:30:10.850Z,99892.80
2018-02-16T14:32:38.448Z,99896.98
2018-02-16T14:35:06.070Z,99888.95
2018-02-16T14:37:33.778Z,99895.45
2018-02-16T14:40:01.499Z,99892.39
2018-02-16T14:42:29.076Z,99895.52
2018-02-16T14:44:56.638Z,99899.05
2018-02-16T14:47:24.267Z,99904.88
2018-02-16T14:49:51.862Z,99912.59
2018-02-16T14:52:19.582Z,99914.42
2018-02-16T14:54:47.149Z,99911.44
2018-02-16T14:57:14.958Z,99912.90
2018-02-16T14:59:42.573Z,99913.82
2018-02-16T15:02:10.137Z,99915.14
2018-02-16T15:04:37.836Z,99917.81
2018-02-16T15:07:05.506Z,99913.00
2018-02-16T15:09:33.158Z,99909.48
2018-02-16T15:12:00.881Z,99910.06
2018-02-16T15:14:28.462Z,99898.12
2018-02-16T15:16:56.037Z,99922.05
2018-02-16T15:19:23.644Z,99914.53
2018-02-16T15:21:51.214Z,99924.16
2018-02-16T15:24:18.838Z,99919.08
2018-02-16T15:26:46.569Z,99920.59
2018-02-16T15:29:14.288Z,99922.11
2018-02-16T15:31:41.878Z,99927.39
2018-02-16T15:34:09.825Z,99934.09
2018-02-16T15:36:37.517Z,99925.73
2018-02-16T15:39:05.321Z,99942.13
2018-02-16T15:41:32.918Z,99944.34
2018-02-16T15:44:00.490Z,99938.64
2018-02-16T15:46:28.054Z,99943.57
2018-02-16T15:48:55.745Z,99946.00
2018-02-16T15:51:24.351Z,99943.69
2018-02-16T15:53:51.988Z,99957.43
2018-02-16T15:56:19.701Z,99953.37
2018-02-16T15:58:47.312Z,99957.62
2018-02-16T16:01:14.918Z,99955.32
2018-02-16T16:03:42.645Z,99946.27
2018-02-16T16:06:10.214Z,99965.73
2018-02-16T16:08:37.794Z,99959.35
2018-02-16T16:11:05.600Z,99960.48
2018-02-16T16:13:33.220Z,99963.74
2018-02-16T16:16:00.934Z,99964.13
2018-02-16T16:18:28.494Z,99971.69
2018-02-16T16:20:56.066Z,99970.14
2018-02-16T16:23:23.790Z,99975.50
2018-02-16T16:25:51.498Z,99980.48
2018-02-16T16:28:19.225Z,99979.09
2018-02-16T16:30:46.793Z,99974.27
2018-02-16T16:33:14.452Z,99971.36
2018-02-16T16:35:42.022Z,99972.86
2018-02-16T16:38:09.815Z,99971.75
2018-02-16T16:40:37.382Z,99982.48
2018-02-16T16:43:04.942Z,99979.16
2018-02-16T16:45:32.530Z,99980.16
2018-02-16T16:48:00.268Z,99973.97
2018-02-16T16:50:28.087Z,99978.61
2018-02-16T16:52:55.647Z,99977.77
2018-02-16T16:55:23.221Z,99974.05
2018-02-16T16:57:51.144Z,99976.53
2018-02-16T17:00:18.715Z,99982.96
2018-02-16T17:02:46.338Z,99990.23
2018-02-16T17:05:14.099Z,99995.64
2018-02-16T17:07:41.914Z,99994.14
2018-02-16T17:10:09.494Z,99998.19
2018-02-16T17:12:37.051Z,99997.16
2018-02-16T17:15:04.868Z,99992.68
2018-02-16T17:17:32.425Z,99995.14
2018-02-16T17:19:59.981Z,99990.20
2018-02-16T17:22:27.555Z,99990.55
2018-02-16T17:24:55.117Z,99990.85
2018-02-16T17:27:22.737Z,99996.89
2018-02-16T17:29:50.476Z,100000.41
2018-02-16T17:32:18.034Z,99994.05
2018-02-16T17:34:45.600Z,99996.62
2018-02-16T17:37:13.163Z,99989.81
2018-02-16T17:39:41.047Z,99989.52
2018-02-16T17:42:08.611Z,99992.39
2018-02-16T17:44:36.179Z,99990.36
2018-02-16T17:47:04.007Z,99990.43
2018-02-16T17:49:31.721Z,99985.77
2018-02-16T17:51:59.329Z,99981.64
2018-02-16T17:54:27.055Z,99983.38
2018-02-16T17:56:54.618Z,99978.05
2018-02-16T17:59:22.206Z,99983.20
2018-02-16T18:01:49.801Z,99975.59
2018-02-16T18:04:17.434Z,99982.26
2018-02-16T18:06:44.994Z,99981.77
2018-02-16T18:09:12.572Z,99983.67
2018-02-16T18:11:40.205Z,99992.83
2018-02-16T18:14:07.999Z,99988.14
2018-02-16T18:16:35.618Z,99981.50
2018-02-16T18:19:03.178Z,99983.41
2018-02-16T18:21:30.868Z,99985.50
2018-02-16T18:23:58.506Z,99979.98
2018-02-16T18:26:26.253Z,99981.34
2018-02-16T18:28:53.873Z,99985.22
2018-02-16T18:31:21.437Z,99984.28
2018-02-16T18:33:49.243Z,99989.22
2018-02-16T18:36:16.827Z,99980.80
2018-02-16T18:38:44.579Z,99984.91
2018-02-16T18:41:12.202Z,99977.27
2018-02-16T18:43:40.016Z,99982.34
2018-02-16T18:46:07.578Z,99988.05
2018-02-16T18:48:35.321Z,99980.18
2018-02-16T18:51:02.876Z,99981.42
2018-02-16T18:53:30.505Z,99985.89
2018-02-16T18:55:58.074Z,99992.00
2018-02-16T18:58:25.635Z,99992.41
2018-02-16T19:00:53.322Z,99988.75
2018-02-16T19:03:20.871Z,99985.92
2018-02-16T19:05:48.504Z,99990.78
2018-02-16T19:08:16.069Z,99989.16
2018-02-16T19:10:43.676Z,99986.80
2018-02-16T19:13:11.255Z,99992.57
2018-02-16T19:15:38.933Z,99991.95
2018-02-16T19:18:06.554Z,100002.42
2018-02-16T19:20:34.121Z,99997.55
2018-02-16T19:23:01.677Z,99990.23
2018-02-16T19:25:29.242Z,99995.45
2018-02-16T19:27:57.038Z,100000.86
2018-02-16T19:30:24.670Z,100000.84
2018-02-16T19:32:52.248Z,99999.94
2018-02-16T19:35:19.809Z,99998.42
2018-02-16T19:37:47.610Z,100001.30
2018-02-16T19:40:15.435Z,100002.45
2018-02-16T19:42:43.548Z,99999.86
2018-02-16T19:45:11.113Z,99999.37
2018-02-16T19:47:38.685Z,99999.31
2018-02-16T19:50:06.287Z,99996.16
2018-02-16T19:52:33.853Z,99998.41
2018-02-16T19:55:01.465Z,99997.57
2018-02-16T19:57:29.255Z,99998.85
2018-02-16T19:59:57.075Z,99993.95
2018-02-16T20:02:24.883Z,99986.60
2018-02-16T20:04:52.611Z,99982.23
2018-02-16T20:07:20.222Z,99987.94
2018-02-16T20:09:47.906Z,99987.30
2018-02-16T20:12:15.558Z,99987.72
2018-02-16T20:14:43.282Z,99988.16
2018-02-16T20:17:11.102Z,99987.71
2018-02-16T20:19:38.919Z,100002.20
2018-02-16T20:22:06.473Z,100002.50
2018-02-16T20:24:34.120Z,100000.42
2018-02-16T20:27:01.695Z,99995.36
2018-02-16T20:29:29.270Z,99994.62
2018-02-16T20:31:56.899Z,100002.31
2018-02-16T20:34:24.477Z,99997.80
2018-02-16T20:36:52.068Z,100001.58
2018-02-16T20:39:19.650Z,100012.52
2018-02-16T20:41:47.233Z,100000.48
2018-02-16T20:44:14.857Z,99997.55
2018-02-16T20:46:42.414Z,99996.50
2018-02-16T20:49:09.970Z,99990.94
2018-02-16T20:51:37.752Z,99987.39
2018-02-16T20:54:05.309Z,99998.36
2018-02-16T20:56:33.089Z,99998.36
2018-02-16T20:59:00.780Z,100001.34
2018-02-16T21:01:28.531Z,99995.96
2018-02-16T21:03:56.126Z,99995.58
2018-02-16T21:06:23.729Z,99986.41
2018-02-16T21:08:51.381Z,100002.56
2018-02-16T21:11:19.122Z,100000.98
2018-02-16T21:13:46.915Z,100003.37
2018-02-16T21:16:14.734Z,100004.09
2018-02-16T21:18:42.306Z,99996.11
2018-02-16T21:21:09.925Z,99993.30
2018-02-16T21:23:37.505Z,99992.98
2018-02-16T21:26:05.057Z,99989.19
2018-02-16T21:28:32.658Z,99992.98
2018-02-16T21:31:00.217Z,99987.01
2018-02-16T21:33:27.823Z,99996.67
2018-02-16T21:35:55.577Z,99990.89
2018-02-16T21:38:23.177Z,99993.78
2018-02-16T21:40:50.741Z,99999.67
2018-02-16T21:43:18.315Z,100000.89
2018-02-16T21:45:45.942Z,100002.50
2018-02-16T21:48:13.641Z,100017.32
2018-02-16T21:50:41.193Z,100011.83
2018-02-16T21:53:08.766Z,100017.43
2018-02-16T21:55:36.325Z,100019.78
2018-02-16T21:58:03.950Z,100013.91
2018-02-16T22:00:31.757Z,100005.22
2018-02-16T22:02:59.575Z,100010.83
2018-02-16T22:05:27.141Z,100020.42
2018-02-16T22:07:54.911Z,100026.55
2018-02-16T22:10:22.576Z,100030.72
2018-02-16T22:12:50.134Z,100043.09
2018-02-16T22:15:17.678Z,100048.21
2018-02-16T22:17:45.482Z,100053.03
2018-02-16T22:20:13.040Z,100050.78
2018-02-16T22:22:40.664Z,100058.14
2018-02-16T22:25:08.231Z,100061.99
2018-02-16T22:27:35.874Z,100064.22
2018-02-16T22:30:03.654Z,100065.19
2018-02-16T22:32:31.390Z,100061.39
2018-02-16T22:34:59.017Z,100052.90
2018-02-16T22:37:26.578Z,100058.13
2018-02-16T22:39:54.119Z,100060.05
2018-02-16T22:42:21.836Z,100060.29
2018-02-16T22:44:49.397Z,100069.91
2018-02-16T22:47:16.961Z,100067.03
2018-02-16T22:49:44.558Z,100070.83
2018-02-16T22:52:12.334Z,100069.11
2018-02-16T22:54:40.073Z,100067.08
2018-02-16T22:57:07.618Z,100062.11
2018-02-16T22:59:35.166Z,100064.14
2018-02-16T23:02:02.726Z,100063.77
2018-02-16T23:04:30.345Z,100058.31
2018-02-16T23:06:57.918Z,100052.11
2018-02-16T23:09:25.482Z,100059.55
2018-02-16T23:11:53.054Z,100050.27
2018-02-16T23:14:20.625Z,100060.41
2018-02-16T23:16:48.274Z,100061.20
2018-02-16T23:19:16.030Z,100065.23
2018-02-16T23:21:43.617Z,100069.17
2018-02-16T23:24:11.221Z,100076.80
2018-02-16T23:26:38.781Z,100062.64
2018-02-16T23:29:06.602Z,100056.19
2018-02-16T23:31:34.421Z,100050.23
2018-02-16T23:34:01.986Z,100048.09
2018-02-16T23:36:29.757Z,100038.75
2018-02-16T23:38:57.317Z,100038.61
2018-02-16T23:41:24.882Z,100042.64
2018-02-16T23:43:52.392Z,100039.23
2018-02-16T23:46:20.019Z,100044.30
2018-02-16T23:48:47.587Z,100066.98
2018-02-16T23:51:15.150Z,100067.79
2018-02-16T23:53:42.733Z,100066.55
2018-02-16T23:56:10.551Z,100066.52
2018-02-16T23:58:38.107Z,100069.59
